Terminal Aerodrome Forecast
Issued by NWS Burlington, VT

Home | Current Version | Previous Version | Text Only | Print | Product List | Glossary On
Versions: 1 2 3 4 5 6 7 8 9 10 11 12 13 14 15 16 17 18 19 20 21 22 23 24
263
FTUS41 KBTV 131133
TAFBTV
TAF
KBTV 131133Z 1312/1412 29010KT P6SM VCSH OVC045
     FM131500 29012G19KT P6SM VCSH OVC050
     FM132000 28013G24KT P6SM BKN040
     FM140100 28011G19KT P6SM SCT140
     FM140800 26008KT P6SM SCT150=

USA.gov is the U.S. government's official web portal to all federal, state and local government web resources and services.